createdAt,value
2019-03-09T00:01:14.253Z,25.87
2019-03-09T00:03:43.814Z,26.50
2019-03-09T00:06:13.667Z,28.77
2019-03-09T00:08:43.187Z,26.73
2019-03-09T00:11:12.691Z,23.83
2019-03-09T00:13:42.190Z,22.47
2019-03-09T00:16:11.684Z,34.00
2019-03-09T00:18:41.143Z,27.37
2019-03-09T00:21:10.645Z,24.13
2019-03-09T00:23:57.797Z,22.67
2019-03-09T00:26:55.534Z,21.80
2019-03-09T00:29:38.709Z,24.00
2019-03-09T00:32:11.026Z,23.87
2019-03-09T00:34:40.758Z,27.53
2019-03-09T00:37:10.255Z,33.87
2019-03-09T00:39:39.683Z,46.70
2019-03-09T00:42:09.185Z,40.33
2019-03-09T00:44:38.674Z,36.33
2019-03-09T00:47:08.429Z,41.57
2019-03-09T00:49:37.913Z,51.77
2019-03-09T00:52:07.441Z,50.17
2019-03-09T00:54:36.954Z,48.47
2019-03-09T00:57:06.447Z,48.53
2019-03-09T00:59:35.925Z,47.57
2019-03-09T01:02:05.367Z,42.23
2019-03-09T01:04:34.861Z,48.80
2019-03-09T01:07:04.341Z,44.03
2019-03-09T01:09:33.806Z,45.03
2019-03-09T01:12:03.317Z,37.67
2019-03-09T01:14:32.919Z,43.73
2019-03-09T01:17:02.410Z,35.57
2019-03-09T01:19:31.884Z,31.03
2019-03-09T01:22:01.365Z,29.33
2019-03-09T01:24:30.828Z,29.30
2019-03-09T01:27:00.346Z,31.57
2019-03-09T01:29:29.798Z,24.93
2019-03-09T01:31:59.284Z,23.77
2019-03-09T01:34:28.764Z,27.57
2019-03-09T01:36:58.230Z,27.83
2019-03-09T01:39:27.829Z,26.37
2019-03-09T01:41:57.369Z,26.37
2019-03-09T01:44:26.850Z,22.17
2019-03-09T01:46:56.350Z,25.20
2019-03-09T01:49:25.935Z,25.33
2019-03-09T01:51:55.429Z,28.47
2019-03-09T01:54:24.917Z,26.47
2019-03-09T01:56:54.424Z,26.53
2019-03-09T01:59:23.899Z,25.03
2019-03-09T02:01:53.422Z,24.80
2019-03-09T02:04:22.952Z,28.23
2019-03-09T02:06:52.407Z,25.40
2019-03-09T02:09:21.945Z,25.70
2019-03-09T02:11:51.457Z,27.23
2019-03-09T02:14:20.920Z,21.93
2019-03-09T02:16:50.511Z,20.90
2019-03-09T02:19:20.023Z,25.00
2019-03-09T02:21:49.537Z,24.93
2019-03-09T02:24:19.085Z,21.10
2019-03-09T02:26:48.597Z,22.73
2019-03-09T02:29:18.091Z,28.80
2019-03-09T02:31:47.593Z,20.40
2019-03-09T02:34:17.052Z,23.87
2019-03-09T02:36:46.557Z,23.50
2019-03-09T02:39:37.846Z,23.90
2019-03-09T02:42:07.325Z,20.80
2019-03-09T02:44:38.589Z,19.03
2019-03-09T02:47:08.107Z,22.27
2019-03-09T02:49:37.615Z,21.33
2019-03-09T02:52:07.239Z,20.30
2019-03-09T02:54:36.750Z,23.50
2019-03-09T02:57:06.240Z,22.87
2019-03-09T02:59:35.692Z,24.87
2019-03-09T03:02:22.808Z,20.40
2019-03-09T03:04:52.233Z,19.50
2019-03-09T03:07:21.727Z,21.67
2019-03-09T03:09:51.241Z,23.00
2019-03-09T03:12:20.667Z,18.93
2019-03-09T03:14:50.230Z,17.83
2019-03-09T03:17:19.731Z,15.10
2019-03-09T03:19:49.184Z,21.60
2019-03-09T03:22:18.672Z,26.87
2019-03-09T03:24:48.194Z,24.03
2019-03-09T03:27:17.676Z,20.57
2019-03-09T03:29:47.158Z,21.77
2019-03-09T03:32:16.735Z,18.57
2019-03-09T03:34:46.232Z,18.70
2019-03-09T03:37:15.689Z,18.33
2019-03-09T03:39:45.180Z,20.53
2019-03-09T03:42:14.636Z,16.30
2019-03-09T03:44:47.174Z,18.13
2019-03-09T03:47:17.592Z,19.77
2019-03-09T03:49:47.098Z,19.90
2019-03-09T03:52:16.661Z,18.97
2019-03-09T03:54:46.176Z,18.63
2019-03-09T03:57:15.650Z,19.50
2019-03-09T03:59:45.151Z,19.13
2019-03-09T04:02:14.717Z,18.17
2019-03-09T04:04:44.151Z,15.23
2019-03-09T04:07:14.166Z,18.53
2019-03-09T04:09:43.833Z,20.30
2019-03-09T04:12:13.664Z,20.37
2019-03-09T04:14:43.231Z,18.23
2019-03-09T04:17:12.738Z,15.30
2019-03-09T04:19:42.254Z,19.97
2019-03-09T04:22:11.804Z,17.27
2019-03-09T04:24:41.392Z,19.17
2019-03-09T04:27:10.868Z,18.13
2019-03-09T04:29:40.424Z,16.10
2019-03-09T04:32:09.934Z,18.13
2019-03-09T04:34:39.487Z,19.30
2019-03-09T04:37:08.977Z,16.40
2019-03-09T04:39:38.489Z,15.53
2019-03-09T04:42:07.975Z,19.00
2019-03-09T04:44:37.460Z,17.00
2019-03-09T04:47:06.938Z,19.13
2019-03-09T04:49:36.437Z,15.37
2019-03-09T04:52:05.933Z,20.47
2019-03-09T04:54:35.370Z,16.87
2019-03-09T04:57:04.872Z,17.10
2019-03-09T04:59:34.378Z,19.20
2019-03-09T05:02:03.906Z,19.17
2019-03-09T05:05:03.814Z,20.73
2019-03-09T05:07:54.711Z,18.27
2019-03-09T05:10:28.014Z,20.23
2019-03-09T05:13:00.785Z,19.50
2019-03-09T05:15:30.231Z,23.43
2019-03-09T05:17:59.722Z,24.17
2019-03-09T05:20:29.252Z,19.67
2019-03-09T05:22:58.789Z,21.00
2019-03-09T05:25:28.288Z,19.67
2019-03-09T05:27:57.847Z,15.37
2019-03-09T05:30:55.292Z,25.10
2019-03-09T05:33:24.773Z,15.40
2019-03-09T05:35:54.249Z,18.27
2019-03-09T05:38:23.743Z,16.97
2019-03-09T05:40:53.241Z,23.67
2019-03-09T05:43:22.735Z,18.37
2019-03-09T05:45:52.213Z,37.50
2019-03-09T05:48:21.702Z,25.53
2019-03-09T05:50:51.192Z,18.43
2019-03-09T05:53:22.348Z,21.53
2019-03-09T05:55:51.959Z,22.17
2019-03-09T05:58:21.454Z,21.23
2019-03-09T06:00:50.911Z,20.83
2019-03-09T06:03:20.384Z,18.57
2019-03-09T06:06:13.089Z,19.27
2019-03-09T06:08:42.892Z,18.80
2019-03-09T06:11:12.376Z,21.93
2019-03-09T06:13:41.933Z,19.40
2019-03-09T06:16:11.446Z,24.97
2019-03-09T06:18:40.966Z,20.13
2019-03-09T06:21:10.512Z,25.40
2019-03-09T06:23:40.011Z,25.33
2019-03-09T06:26:09.529Z,25.30
2019-03-09T06:28:39.084Z,26.60
2019-03-09T06:31:08.806Z,31.53
2019-03-09T06:33:39.281Z,31.37
2019-03-09T06:36:35.995Z,29.37
2019-03-09T06:39:17.078Z,26.67
2019-03-09T06:42:07.798Z,26.10
2019-03-09T06:44:37.293Z,23.23
2019-03-09T06:47:06.769Z,23.23
2019-03-09T06:49:36.268Z,22.43
2019-03-09T06:52:05.752Z,23.07
2019-03-09T06:54:35.243Z,28.63
2019-03-09T06:57:13.463Z,26.07
2019-03-09T06:59:36.009Z,27.30
2019-03-09T07:02:05.593Z,26.07
2019-03-09T07:04:35.092Z,24.40
2019-03-09T07:07:04.638Z,25.87
2019-03-09T07:09:34.134Z,30.17
2019-03-09T07:12:03.663Z,25.30
2019-03-09T07:15:16.323Z,24.67
2019-03-09T07:17:45.840Z,25.90
2019-03-09T07:20:15.461Z,27.53
2019-03-09T07:22:44.997Z,25.40
2019-03-09T07:25:14.575Z,28.00
2019-03-09T07:27:44.107Z,24.43
2019-03-09T07:30:18.033Z,25.87
2019-03-09T07:32:47.566Z,27.97
2019-03-09T07:35:17.048Z,25.20
2019-03-09T07:37:46.561Z,27.00
2019-03-09T07:40:16.371Z,28.50
2019-03-09T07:42:45.878Z,25.27
2019-03-09T07:45:15.672Z,26.17
2019-03-09T07:47:45.493Z,21.47
2019-03-09T07:50:15.170Z,20.20
2019-03-09T07:52:44.660Z,21.40
2019-03-09T07:55:15.035Z,22.10
2019-03-09T07:57:44.547Z,19.10
2019-03-09T08:00:18.594Z,22.10
2019-03-09T08:02:48.154Z,17.13
2019-03-09T08:05:17.953Z,18.30
2019-03-09T08:07:47.495Z,21.13
2019-03-09T08:10:21.932Z,15.10
2019-03-09T08:12:51.415Z,11.73
2019-03-09T08:15:22.363Z,15.77
2019-03-09T08:17:51.881Z,13.27
2019-03-09T08:20:25.851Z,11.60
2019-03-09T08:22:58.140Z,16.00
2019-03-09T08:25:28.724Z,9.47
2019-03-09T08:27:58.255Z,10.37
2019-03-09T08:30:27.935Z,11.80
2019-03-09T08:32:57.842Z,13.20
2019-03-09T08:35:27.299Z,10.13
2019-03-09T08:37:56.820Z,7.43
2019-03-09T08:40:26.320Z,10.67
2019-03-09T08:42:55.871Z,8.53
2019-03-09T08:45:25.381Z,4.73
2019-03-09T08:47:54.862Z,6.63
2019-03-09T08:50:24.411Z,9.03
2019-03-09T08:52:53.895Z,9.63
2019-03-09T08:55:23.421Z,9.67
2019-03-09T08:57:52.930Z,9.13
2019-03-09T09:00:29.915Z,6.13
2019-03-09T09:02:58.917Z,5.57
2019-03-09T09:05:28.380Z,9.90
2019-03-09T09:07:57.891Z,9.27
2019-03-09T09:10:27.416Z,4.67
2019-03-09T09:12:56.876Z,8.80
2019-03-09T09:15:29.122Z,4.63
2019-03-09T09:17:58.664Z,8.87
2019-03-09T09:20:28.204Z,7.57
2019-03-09T09:22:57.714Z,6.27
2019-03-09T09:25:27.222Z,7.37
2019-03-09T09:27:56.834Z,9.37
2019-03-09T09:30:27.441Z,7.97
2019-03-09T09:32:57.095Z,6.30
2019-03-09T09:35:27.067Z,7.77
2019-03-09T09:37:56.517Z,6.30
2019-03-09T09:40:26.181Z,7.60
2019-03-09T09:42:55.767Z,7.50
2019-03-09T09:45:25.643Z,8.70
2019-03-09T09:47:55.126Z,15.93
2019-03-09T09:50:24.650Z,11.50
2019-03-09T09:52:54.219Z,7.90
2019-03-09T09:55:23.800Z,10.60
2019-03-09T09:57:53.365Z,8.57
2019-03-09T10:00:24.644Z,7.93
2019-03-09T10:02:54.171Z,11.33
2019-03-09T10:05:23.770Z,7.43
2019-03-09T10:07:53.278Z,13.97
2019-03-09T10:10:22.901Z,6.17
2019-03-09T10:12:52.708Z,5.20
2019-03-09T10:15:24.175Z,4.70
2019-03-09T10:17:53.703Z,6.67
2019-03-09T10:20:23.239Z,6.77
2019-03-09T10:23:03.100Z,14.00
2019-03-09T10:25:24.007Z,6.50
2019-03-09T10:27:53.630Z,5.00
2019-03-09T10:30:23.165Z,9.13
2019-03-09T10:32:52.859Z,6.40
2019-03-09T10:35:22.394Z,4.40
2019-03-09T10:37:51.905Z,7.07
2019-03-09T10:40:21.634Z,8.57
2019-03-09T10:42:51.115Z,7.87
2019-03-09T10:45:20.640Z,9.50
2019-03-09T10:47:50.242Z,10.10
2019-03-09T10:50:19.988Z,6.17
2019-03-09T10:52:49.718Z,7.67
2019-03-09T10:55:25.410Z,6.20
2019-03-09T10:57:54.957Z,7.37
2019-03-09T11:00:27.141Z,7.97
2019-03-09T11:02:58.591Z,14.77
2019-03-09T11:05:31.199Z,7.00
2019-03-09T11:08:02.112Z,10.47
2019-03-09T11:10:31.586Z,7.37
2019-03-09T11:13:01.296Z,10.17
2019-03-09T11:15:30.896Z,10.73
2019-03-09T11:18:00.499Z,14.33
2019-03-09T11:20:32.832Z,7.17
2019-03-09T11:23:02.658Z,13.63
2019-03-09T11:25:32.179Z,9.17
2019-03-09T11:28:12.500Z,7.87
2019-03-09T11:30:42.046Z,9.13
2019-03-09T11:33:11.605Z,8.67
2019-03-09T11:35:41.120Z,7.70
2019-03-09T11:38:10.656Z,14.20
2019-03-09T11:40:40.130Z,13.87
2019-03-09T11:43:09.649Z,6.77
2019-03-09T11:45:39.190Z,13.27
2019-03-09T11:48:08.767Z,11.47
2019-03-09T11:50:38.318Z,10.80
2019-03-09T11:53:07.796Z,8.67
2019-03-09T11:55:37.349Z,12.20
2019-03-09T11:58:06.863Z,6.87
2019-03-09T12:00:37.291Z,13.17
2019-03-09T12:03:06.835Z,8.93
2019-03-09T12:05:36.370Z,7.20
2019-03-09T12:08:05.908Z,7.83
2019-03-09T12:10:35.437Z,13.30
2019-03-09T12:13:04.987Z,10.57
2019-03-09T12:15:34.544Z,10.07
2019-03-09T12:18:04.070Z,9.03
2019-03-09T12:20:33.571Z,6.87
2019-03-09T12:23:19.415Z,6.73
2019-03-09T12:25:48.957Z,6.63
2019-03-09T12:28:18.447Z,7.53
2019-03-09T12:30:47.972Z,13.10
2019-03-09T12:33:17.502Z,11.67
2019-03-09T12:35:47.016Z,8.63
2019-03-09T12:38:16.577Z,10.53
2019-03-09T12:40:46.111Z,7.57
2019-03-09T12:43:15.629Z,7.80
2019-03-09T12:45:45.098Z,9.93
2019-03-09T12:48:14.605Z,8.97
2019-03-09T12:50:44.136Z,6.43
2019-03-09T12:53:14.305Z,5.93
2019-03-09T12:55:43.775Z,5.50
2019-03-09T12:58:13.290Z,9.63
2019-03-09T13:00:42.774Z,7.97
2019-03-09T13:03:12.416Z,10.43
2019-03-09T13:05:42.012Z,10.50
2019-03-09T13:08:11.504Z,9.47
2019-03-09T13:10:41.081Z,8.20
2019-03-09T13:13:10.588Z,8.23
2019-03-09T13:15:40.127Z,7.07
2019-03-09T13:18:09.689Z,9.53
2019-03-09T13:20:39.207Z,10.63
2019-03-09T13:23:08.747Z,7.43
2019-03-09T13:25:38.809Z,6.23
2019-03-09T13:28:08.494Z,7.40
2019-03-09T13:30:37.995Z,8.53
2019-03-09T13:33:07.561Z,3.70
2019-03-09T13:35:37.068Z,9.60
2019-03-09T13:38:06.573Z,5.60
2019-03-09T13:40:36.023Z,11.43
2019-03-09T13:43:05.565Z,10.40
2019-03-09T13:45:35.108Z,8.40
2019-03-09T13:48:04.634Z,5.00
2019-03-09T13:50:34.107Z,6.53
2019-03-09T13:53:03.636Z,6.27
2019-03-09T13:55:33.103Z,9.87
2019-03-09T13:58:02.654Z,6.90
2019-03-09T14:00:40.145Z,8.67
2019-03-09T14:03:03.710Z,6.83
2019-03-09T14:05:33.323Z,8.63
2019-03-09T14:08:02.824Z,5.90
2019-03-09T14:10:32.497Z,9.73
2019-03-09T14:13:02.042Z,4.53
2019-03-09T14:15:31.609Z,3.97
2019-03-09T14:18:01.125Z,8.03
2019-03-09T14:20:30.646Z,4.73
2019-03-09T14:23:00.243Z,6.20
2019-03-09T14:25:29.754Z,6.40
2019-03-09T14:27:59.251Z,5.40
2019-03-09T14:30:28.804Z,6.37
2019-03-09T14:32:58.256Z,8.43
2019-03-09T14:35:27.798Z,4.80
2019-03-09T14:37:57.364Z,10.97
2019-03-09T14:40:26.813Z,7.63
2019-03-09T14:42:56.359Z,8.73
2019-03-09T14:45:25.900Z,5.70
2019-03-09T14:47:55.413Z,6.40
2019-03-09T14:50:24.879Z,5.03
2019-03-09T14:52:54.377Z,8.50
2019-03-09T14:55:23.907Z,5.77
2019-03-09T14:57:53.411Z,8.90
2019-03-09T15:00:22.911Z,4.60
2019-03-09T15:02:52.483Z,7.20
2019-03-09T15:05:22.053Z,7.23
2019-03-09T15:07:51.719Z,8.23
2019-03-09T15:10:21.262Z,9.23
2019-03-09T15:12:50.951Z,9.90
2019-03-09T15:15:20.582Z,4.20
2019-03-09T15:17:50.039Z,6.67
2019-03-09T15:20:19.568Z,8.27
2019-03-09T15:22:49.033Z,7.47
2019-03-09T15:25:18.632Z,7.47
2019-03-09T15:27:48.507Z,7.63
2019-03-09T15:30:18.248Z,5.63
2019-03-09T15:32:47.770Z,12.90
2019-03-09T15:35:17.280Z,9.13
2019-03-09T15:37:46.878Z,5.87
2019-03-09T15:40:17.767Z,9.60
2019-03-09T15:42:47.286Z,6.77
2019-03-09T15:45:17.023Z,11.03
2019-03-09T15:47:46.763Z,7.20
2019-03-09T15:50:16.703Z,9.77
2019-03-09T15:52:46.252Z,10.97
2019-03-09T15:55:16.149Z,10.70
2019-03-09T15:57:48.168Z,10.60
2019-03-09T16:00:18.972Z,10.20
2019-03-09T16:02:48.577Z,9.83
2019-03-09T16:05:18.313Z,15.67
2019-03-09T16:07:47.825Z,14.33
2019-03-09T16:10:17.467Z,10.30
2019-03-09T16:12:46.954Z,11.20
2019-03-09T16:15:16.888Z,13.90
2019-03-09T16:17:46.454Z,14.43
2019-03-09T16:20:16.739Z,8.70
2019-03-09T16:22:46.285Z,10.37
2019-03-09T16:25:16.048Z,16.20
2019-03-09T16:27:45.553Z,14.83
2019-03-09T16:30:18.685Z,14.10
2019-03-09T16:32:48.317Z,10.50
2019-03-09T16:35:17.886Z,9.03
2019-03-09T16:37:47.436Z,13.33
2019-03-09T16:40:17.021Z,8.63
2019-03-09T16:42:46.616Z,11.27
2019-03-09T16:45:16.420Z,15.70
2019-03-09T16:47:46.010Z,13.63
2019-03-09T16:50:15.659Z,8.30
2019-03-09T16:52:45.639Z,10.70
2019-03-09T16:55:15.241Z,8.77
2019-03-09T16:57:44.746Z,14.20
2019-03-09T17:00:16.780Z,9.83
2019-03-09T17:02:46.387Z,13.90
2019-03-09T17:05:16.047Z,10.30
2019-03-09T17:07:45.558Z,11.50
2019-03-09T17:10:15.389Z,17.13
2019-03-09T17:12:44.989Z,11.97
2019-03-09T17:15:15.125Z,9.33
2019-03-09T17:17:45.148Z,13.73
2019-03-09T17:20:15.224Z,12.33
2019-03-09T17:22:44.849Z,16.07
2019-03-09T17:25:15.065Z,14.13
2019-03-09T17:27:44.991Z,17.63
2019-03-09T17:30:16.300Z,9.43
2019-03-09T17:32:45.801Z,15.47
2019-03-09T17:35:15.333Z,14.50
2019-03-09T17:37:44.967Z,20.20
2019-03-09T17:40:14.615Z,13.63
2019-03-09T17:42:44.094Z,19.27
2019-03-09T17:45:16.169Z,15.50
2019-03-09T17:47:45.691Z,13.70
2019-03-09T17:50:15.400Z,15.07
2019-03-09T17:52:45.051Z,12.67
2019-03-09T17:55:14.569Z,10.10
2019-03-09T17:57:44.151Z,8.97
2019-03-09T18:00:16.302Z,12.60
2019-03-09T18:02:45.867Z,15.30
2019-03-09T18:05:15.422Z,20.43
2019-03-09T18:07:44.928Z,18.20
2019-03-09T18:10:35.063Z,28.47
2019-03-09T18:13:04.638Z,16.03
2019-03-09T18:15:34.146Z,14.63
2019-03-09T18:18:03.765Z,13.37
2019-03-09T18:20:33.271Z,11.47
2019-03-09T18:23:02.860Z,10.50
2019-03-09T18:25:32.368Z,15.50
2019-03-09T18:28:01.945Z,12.13
2019-03-09T18:30:31.462Z,13.63
2019-03-09T18:33:01.022Z,10.90
2019-03-09T18:35:30.602Z,11.63
2019-03-09T18:38:00.202Z,12.70
2019-03-09T18:40:29.737Z,11.10
2019-03-09T18:42:59.249Z,11.70
2019-03-09T18:45:28.779Z,11.97
2019-03-09T18:47:58.334Z,11.67
2019-03-09T18:50:27.843Z,13.33
2019-03-09T18:52:57.346Z,12.77
2019-03-09T18:55:26.888Z,13.03
2019-03-09T18:57:56.399Z,10.10
2019-03-09T19:00:25.907Z,12.77
2019-03-09T19:02:55.496Z,10.50
2019-03-09T19:05:26.281Z,9.53
2019-03-09T19:07:55.800Z,12.13
2019-03-09T19:10:25.326Z,10.97
2019-03-09T19:12:54.771Z,11.27
2019-03-09T19:15:24.258Z,11.87
2019-03-09T19:17:53.861Z,11.43
2019-03-09T19:20:23.495Z,9.37
2019-03-09T19:22:53.019Z,14.07
2019-03-09T19:25:22.662Z,18.23
2019-03-09T19:27:52.221Z,12.87
2019-03-09T19:30:21.685Z,16.73
2019-03-09T19:32:59.813Z,40.20
2019-03-09T19:35:22.417Z,46.20
2019-03-09T19:37:51.874Z,31.03
2019-03-09T19:40:21.403Z,29.37
2019-03-09T19:42:50.992Z,24.70
2019-03-09T19:45:20.479Z,24.33
2019-03-09T19:47:50.039Z,24.53
2019-03-09T19:50:19.623Z,18.77
2019-03-09T19:52:49.237Z,19.37
2019-03-09T19:55:18.883Z,16.23
2019-03-09T19:57:48.381Z,13.37
2019-03-09T20:00:17.999Z,17.60
2019-03-09T20:02:47.509Z,13.67
2019-03-09T20:05:17.103Z,13.37
2019-03-09T20:07:46.596Z,15.27
2019-03-09T20:10:16.263Z,17.23
2019-03-09T20:12:45.760Z,17.90
2019-03-09T20:15:15.756Z,21.73
2019-03-09T20:17:45.941Z,38.10
2019-03-09T20:20:15.953Z,32.80
2019-03-09T20:22:45.518Z,26.87
2019-03-09T20:25:15.035Z,26.50
2019-03-09T20:27:44.602Z,22.57
2019-03-09T20:30:14.986Z,25.57
2019-03-09T20:32:44.514Z,19.33
2019-03-09T20:35:14.137Z,22.33
2019-03-09T20:37:43.721Z,16.10
2019-03-09T20:40:13.658Z,19.10
2019-03-09T20:42:43.179Z,23.07
2019-03-09T20:45:14.662Z,16.90
2019-03-09T20:47:44.453Z,14.90
2019-03-09T20:50:14.941Z,18.17
2019-03-09T20:52:44.506Z,20.73
2019-03-09T20:55:14.008Z,23.97
2019-03-09T20:57:43.528Z,19.47
2019-03-09T21:00:15.133Z,20.77
2019-03-09T21:02:44.643Z,20.80
2019-03-09T21:05:14.425Z,19.07
2019-03-09T21:07:44.014Z,25.57
2019-03-09T21:10:14.779Z,23.23
2019-03-09T21:13:04.983Z,20.40
2019-03-09T21:15:34.475Z,21.30
2019-03-09T21:18:03.999Z,21.07
2019-03-09T21:20:33.504Z,23.60
2019-03-09T21:23:03.171Z,24.73
2019-03-09T21:25:32.779Z,20.23
2019-03-09T21:28:02.261Z,19.60
2019-03-09T21:30:31.743Z,28.87
2019-03-09T21:33:01.224Z,20.30
2019-03-09T21:35:30.757Z,27.33
2019-03-09T21:38:00.406Z,18.90
2019-03-09T21:40:30.017Z,19.70
2019-03-09T21:42:59.569Z,24.53
2019-03-09T21:45:29.160Z,19.37
2019-03-09T21:47:58.663Z,20.30
2019-03-09T21:50:28.173Z,18.87
2019-03-09T21:52:57.666Z,23.13
2019-03-09T21:55:27.159Z,21.83
2019-03-09T21:57:56.680Z,21.03
2019-03-09T22:00:26.306Z,24.53
2019-03-09T22:02:55.794Z,16.53
2019-03-09T22:05:25.340Z,25.70
2019-03-09T22:07:55.846Z,13.73
2019-03-09T22:10:25.568Z,17.07
2019-03-09T22:12:55.082Z,17.67
2019-03-09T22:15:24.598Z,21.97
2019-03-09T22:17:54.063Z,18.57
2019-03-09T22:20:23.572Z,20.40
2019-03-09T22:22:53.057Z,16.10
2019-03-09T22:25:22.544Z,20.00
2019-03-09T22:27:52.100Z,12.07
2019-03-09T22:30:21.639Z,14.23
2019-03-09T22:32:51.191Z,15.20
2019-03-09T22:35:20.654Z,14.50
2019-03-09T22:37:50.113Z,14.47
2019-03-09T22:40:19.651Z,16.50
2019-03-09T22:42:49.085Z,14.43
2019-03-09T22:45:18.574Z,15.00
2019-03-09T22:47:48.096Z,20.40
2019-03-09T22:50:17.728Z,15.30
2019-03-09T22:52:47.195Z,12.00
2019-03-09T22:55:16.791Z,12.27
2019-03-09T22:57:46.290Z,11.70
2019-03-09T23:00:17.779Z,13.87
2019-03-09T23:02:47.291Z,13.10
2019-03-09T23:05:17.105Z,10.33
2019-03-09T23:07:46.576Z,14.23
2019-03-09T23:10:16.908Z,12.37
2019-03-09T23:12:46.394Z,9.60
2019-03-09T23:15:16.397Z,12.40
2019-03-09T23:17:46.141Z,9.00
2019-03-09T23:20:16.940Z,15.07
2019-03-09T23:22:46.443Z,13.23
2019-03-09T23:25:16.683Z,9.53
2019-03-09T23:27:46.198Z,7.00
2019-03-09T23:30:16.890Z,8.83
2019-03-09T23:32:46.432Z,8.73
2019-03-09T23:35:16.438Z,9.13
2019-03-09T23:37:46.326Z,9.47
2019-03-09T23:40:16.516Z,9.60
2019-03-09T23:42:46.015Z,11.23
2019-03-09T23:45:16.470Z,8.07
2019-03-09T23:47:46.118Z,14.17
2019-03-09T23:50:16.182Z,8.93
2019-03-09T23:52:46.084Z,9.97
2019-03-09T23:55:22.442Z,12.13
2019-03-09T23:57:48.416Z,8.87
